Terminal Aerodrome Forecast
Issued by NWS

Home | Current Version | Previous Version | Graphics & Text | Print | Product List | Glossary On
Versions: 1 2 3 4 5 6 7 8 9 10 11 12 13 14 15
000
FTUS43 KFGF 220149 AAA
TAFBJI
TAF AMD
KBJI 220149Z 2202/2224 VRB05KT P6SM BKN200
     FM221500 25008KT P6SM BKN080
     FM221600 27009KT P6SM SCT140
     FM221700 30010KT P6SM SCT200=

USA.gov is the U.S. government's official web portal to all federal, state and local government web resources and services.